sensor_id;sensor_type;location;lat;lon;timestamp;P1;durP1;ratioP1;P2;durP2;ratioP2
46128;SDS011;31860;45.186;5.790;2022-11-20T00:01:39;1.23;;;1.00;;
46128;SDS011;31860;45.186;5.790;2022-11-20T00:04:05;0.80;;;0.68;;
46128;SDS011;31860;45.186;5.790;2022-11-20T00:06:31;0.77;;;0.77;;
46128;SDS011;31860;45.186;5.790;2022-11-20T00:08:57;1.15;;;0.98;;
46128;SDS011;31860;45.186;5.790;2022-11-20T00:11:25;0.82;;;0.82;;
46128;SDS011;31860;45.186;5.790;2022-11-20T00:13:53;1.33;;;1.13;;
46128;SDS011;31860;45.186;5.790;2022-11-20T00:16:22;0.57;;;0.55;;
46128;SDS011;31860;45.186;5.790;2022-11-20T00:18:49;1.38;;;1.17;;
46128;SDS011;31860;45.186;5.790;2022-11-20T00:21:16;1.55;;;1.23;;
46128;SDS011;31860;45.186;5.790;2022-11-20T00:23:43;1.95;;;1.00;;
46128;SDS011;31860;45.186;5.790;2022-11-20T00:26:09;2.58;;;0.82;;
46128;SDS011;31860;45.186;5.790;2022-11-20T00:28:37;1.35;;;1.05;;
46128;SDS011;31860;45.186;5.790;2022-11-20T00:31:04;0.73;;;0.73;;
46128;SDS011;31860;45.186;5.790;2022-11-20T00:33:34;1.77;;;1.17;;
46128;SDS011;31860;45.186;5.790;2022-11-20T00:36:00;0.70;;;0.60;;
46128;SDS011;31860;45.186;5.790;2022-11-20T00:38:30;1.65;;;1.27;;
46128;SDS011;31860;45.186;5.790;2022-11-20T00:40:58;1.40;;;1.08;;
46128;SDS011;31860;45.186;5.790;2022-11-20T00:43:25;1.63;;;1.50;;
46128;SDS011;31860;45.186;5.790;2022-11-20T00:45:55;0.98;;;0.85;;
46128;SDS011;31860;45.186;5.790;2022-11-20T00:48:22;1.88;;;1.20;;
46128;SDS011;31860;45.186;5.790;2022-11-20T00:50:47;1.35;;;1.02;;
46128;SDS011;31860;45.186;5.790;2022-11-20T00:53:12;1.40;;;0.95;;
46128;SDS011;31860;45.186;5.790;2022-11-20T00:55:38;1.25;;;1.15;;
46128;SDS011;31860;45.186;5.790;2022-11-20T00:58:03;2.90;;;1.42;;
46128;SDS011;31860;45.186;5.790;2022-11-20T01:00:28;1.52;;;1.42;;
46128;SDS011;31860;45.186;5.790;2022-11-20T01:02:55;8.00;;;1.52;;
46128;SDS011;31860;45.186;5.790;2022-11-20T01:05:20;1.67;;;1.17;;
46128;SDS011;31860;45.186;5.790;2022-11-20T01:07:46;0.77;;;0.68;;
46128;SDS011;31860;45.186;5.790;2022-11-20T01:10:11;3.80;;;2.03;;
46128;SDS011;31860;45.186;5.790;2022-11-20T01:12:36;2.50;;;1.33;;
46128;SDS011;31860;45.186;5.790;2022-11-20T01:15:02;0.93;;;0.60;;
46128;SDS011;31860;45.186;5.790;2022-11-20T01:17:27;1.17;;;1.00;;
46128;SDS011;31860;45.186;5.790;2022-11-20T01:19:53;1.15;;;1.08;;
46128;SDS011;31860;45.186;5.790;2022-11-20T01:22:18;1.88;;;1.05;;
46128;SDS011;31860;45.186;5.790;2022-11-20T01:24:43;1.20;;;0.75;;
46128;SDS011;31860;45.186;5.790;2022-11-20T01:27:09;1.48;;;1.10;;
46128;SDS011;31860;45.186;5.790;2022-11-20T01:29:34;0.70;;;0.70;;
46128;SDS011;31860;45.186;5.790;2022-11-20T01:32:00;3.35;;;1.75;;
46128;SDS011;31860;45.186;5.790;2022-11-20T01:34:25;1.65;;;1.00;;
46128;SDS011;31860;45.186;5.790;2022-11-20T01:36:51;1.92;;;1.02;;
46128;SDS011;31860;45.186;5.790;2022-11-20T01:39:24;17.70;;;2.83;;
46128;SDS011;31860;45.186;5.790;2022-11-20T01:41:51;2.88;;;1.98;;
46128;SDS011;31860;45.186;5.790;2022-11-20T01:44:54;5.35;;;2.35;;
46128;SDS011;31860;45.186;5.790;2022-11-20T01:47:32;3.83;;;1.43;;
46128;SDS011;31860;45.186;5.790;2022-11-20T01:52:51;0.95;;;0.85;;
46128;SDS011;31860;45.186;5.790;2022-11-20T01:55:30;1.95;;;0.93;;
46128;SDS011;31860;45.186;5.790;2022-11-20T01:57:58;1.73;;;1.17;;
46128;SDS011;31860;45.186;5.790;2022-11-20T02:00:24;3.35;;;1.25;;
46128;SDS011;31860;45.186;5.790;2022-11-20T02:02:55;1.35;;;1.20;;
46128;SDS011;31860;45.186;5.790;2022-11-20T02:05:36;2.78;;;1.50;;
46128;SDS011;31860;45.186;5.790;2022-11-20T02:08:04;2.50;;;1.27;;
46128;SDS011;31860;45.186;5.790;2022-11-20T02:10:31;0.90;;;0.90;;
46128;SDS011;31860;45.186;5.790;2022-11-20T02:12:57;2.70;;;1.80;;
46128;SDS011;31860;45.186;5.790;2022-11-20T02:15:41;1.52;;;0.93;;
46128;SDS011;31860;45.186;5.790;2022-11-20T02:18:07;1.40;;;1.30;;
46128;SDS011;31860;45.186;5.790;2022-11-20T02:20:35;2.22;;;1.17;;
46128;SDS011;31860;45.186;5.790;2022-11-20T02:23:05;0.68;;;0.52;;
46128;SDS011;31860;45.186;5.790;2022-11-20T02:25:37;0.68;;;0.68;;
46128;SDS011;31860;45.186;5.790;2022-11-20T02:28:05;1.20;;;0.77;;
46128;SDS011;31860;45.186;5.790;2022-11-20T02:30:30;0.82;;;0.77;;
46128;SDS011;31860;45.186;5.790;2022-11-20T02:32:57;4.40;;;1.42;;
46128;SDS011;31860;45.186;5.790;2022-11-20T02:37:48;0.98;;;0.88;;
46128;SDS011;31860;45.186;5.790;2022-11-20T02:40:16;1.55;;;0.98;;
46128;SDS011;31860;45.186;5.790;2022-11-20T02:42:41;0.43;;;0.43;;
46128;SDS011;31860;45.186;5.790;2022-11-20T02:45:07;1.85;;;1.10;;
46128;SDS011;31860;45.186;5.790;2022-11-20T02:47:33;1.42;;;1.02;;
46128;SDS011;31860;45.186;5.790;2022-11-20T02:49:58;2.47;;;1.55;;
46128;SDS011;31860;45.186;5.790;2022-11-20T02:52:24;1.13;;;0.68;;
46128;SDS011;31860;45.186;5.790;2022-11-20T02:54:50;6.43;;;1.05;;
46128;SDS011;31860;45.186;5.790;2022-11-20T02:57:15;1.95;;;1.13;;
46128;SDS011;31860;45.186;5.790;2022-11-20T02:59:41;1.98;;;1.13;;
46128;SDS011;31860;45.186;5.790;2022-11-20T03:02:06;1.83;;;1.02;;
46128;SDS011;31860;45.186;5.790;2022-11-20T03:04:32;2.08;;;1.13;;
46128;SDS011;31860;45.186;5.790;2022-11-20T03:06:58;0.63;;;0.63;;
46128;SDS011;31860;45.186;5.790;2022-11-20T03:09:23;1.75;;;0.77;;
46128;SDS011;31860;45.186;5.790;2022-11-20T03:11:49;0.93;;;0.77;;
46128;SDS011;31860;45.186;5.790;2022-11-20T03:14:14;2.88;;;1.55;;
46128;SDS011;31860;45.186;5.790;2022-11-20T03:16:40;0.40;;;0.40;;
46128;SDS011;31860;45.186;5.790;2022-11-20T03:19:05;0.70;;;0.70;;
46128;SDS011;31860;45.186;5.790;2022-11-20T03:21:32;0.73;;;0.68;;
46128;SDS011;31860;45.186;5.790;2022-11-20T03:23:58;1.67;;;0.60;;
46128;SDS011;31860;45.186;5.790;2022-11-20T03:26:24;0.40;;;0.40;;
46128;SDS011;31860;45.186;5.790;2022-11-20T03:28:52;0.32;;;0.32;;
46128;SDS011;31860;45.186;5.790;2022-11-20T03:31:23;0.38;;;0.38;;
46128;SDS011;31860;45.186;5.790;2022-11-20T03:33:50;0.82;;;0.82;;
46128;SDS011;31860;45.186;5.790;2022-11-20T03:36:16;0.52;;;0.52;;
46128;SDS011;31860;45.186;5.790;2022-11-20T03:38:43;0.57;;;0.57;;
46128;SDS011;31860;45.186;5.790;2022-11-20T03:41:19;1.75;;;0.85;;
46128;SDS011;31860;45.186;5.790;2022-11-20T03:46:18;0.30;;;0.30;;
46128;SDS011;31860;45.186;5.790;2022-11-20T03:48:44;0.50;;;0.50;;
46128;SDS011;31860;45.186;5.790;2022-11-20T03:51:16;0.28;;;0.28;;
46128;SDS011;31860;45.186;5.790;2022-11-20T03:53:45;0.40;;;0.40;;
46128;SDS011;31860;45.186;5.790;2022-11-20T03:56:12;0.57;;;0.30;;
46128;SDS011;31860;45.186;5.790;2022-11-20T03:58:39;0.65;;;0.65;;
46128;SDS011;31860;45.186;5.790;2022-11-20T04:01:08;1.48;;;0.80;;
46128;SDS011;31860;45.186;5.790;2022-11-20T04:03:35;0.55;;;0.55;;
46128;SDS011;31860;45.186;5.790;2022-11-20T04:06:08;0.43;;;0.43;;
46128;SDS011;31860;45.186;5.790;2022-11-20T04:08:35;0.35;;;0.35;;
46128;SDS011;31860;45.186;5.790;2022-11-20T04:11:08;0.57;;;0.57;;
46128;SDS011;31860;45.186;5.790;2022-11-20T04:13:37;0.32;;;0.32;;
46128;SDS011;31860;45.186;5.790;2022-11-20T04:16:02;0.82;;;0.82;;
46128;SDS011;31860;45.186;5.790;2022-11-20T04:18:28;0.85;;;0.70;;
46128;SDS011;31860;45.186;5.790;2022-11-20T04:20:55;0.98;;;0.65;;
46128;SDS011;31860;45.186;5.790;2022-11-20T04:23:22;0.32;;;0.32;;
46128;SDS011;31860;45.186;5.790;2022-11-20T04:25:47;1.38;;;0.65;;
46128;SDS011;31860;45.186;5.790;2022-11-20T04:28:12;0.77;;;0.60;;
46128;SDS011;31860;45.186;5.790;2022-11-20T04:30:38;0.60;;;0.60;;
46128;SDS011;31860;45.186;5.790;2022-11-20T04:33:03;0.47;;;0.45;;
46128;SDS011;31860;45.186;5.790;2022-11-20T04:35:28;0.73;;;0.70;;
46128;SDS011;31860;45.186;5.790;2022-11-20T04:37:54;0.50;;;0.50;;
46128;SDS011;31860;45.186;5.790;2022-11-20T04:40:19;4.90;;;0.80;;
46128;SDS011;31860;45.186;5.790;2022-11-20T04:42:44;0.30;;;0.30;;
46128;SDS011;31860;45.186;5.790;2022-11-20T04:45:10;1.23;;;0.80;;
46128;SDS011;31860;45.186;5.790;2022-11-20T04:47:36;0.70;;;0.70;;
46128;SDS011;31860;45.186;5.790;2022-11-20T04:50:01;0.55;;;0.45;;
46128;SDS011;31860;45.186;5.790;2022-11-20T04:52:27;0.98;;;0.73;;
46128;SDS011;31860;45.186;5.790;2022-11-20T04:54:52;1.02;;;0.60;;
46128;SDS011;31860;45.186;5.790;2022-11-20T04:57:18;1.38;;;0.80;;
46128;SDS011;31860;45.186;5.790;2022-11-20T04:59:44;2.83;;;1.27;;
46128;SDS011;31860;45.186;5.790;2022-11-20T05:02:09;0.55;;;0.55;;
46128;SDS011;31860;45.186;5.790;2022-11-20T05:04:35;0.50;;;0.50;;
46128;SDS011;31860;45.186;5.790;2022-11-20T05:07:01;0.50;;;0.50;;
46128;SDS011;31860;45.186;5.790;2022-11-20T05:09:26;0.90;;;0.50;;
46128;SDS011;31860;45.186;5.790;2022-11-20T05:11:51;0.43;;;0.43;;
46128;SDS011;31860;45.186;5.790;2022-11-20T05:14:17;0.70;;;0.70;;
46128;SDS011;31860;45.186;5.790;2022-11-20T05:16:42;0.85;;;0.57;;
46128;SDS011;31860;45.186;5.790;2022-11-20T05:19:08;0.47;;;0.47;;
46128;SDS011;31860;45.186;5.790;2022-11-20T05:21:33;0.40;;;0.40;;
46128;SDS011;31860;45.186;5.790;2022-11-20T05:23:59;0.60;;;0.60;;
46128;SDS011;31860;45.186;5.790;2022-11-20T05:26:24;0.65;;;0.55;;
46128;SDS011;31860;45.186;5.790;2022-11-20T05:28:50;0.75;;;0.75;;
46128;SDS011;31860;45.186;5.790;2022-11-20T05:31:17;0.40;;;0.40;;
46128;SDS011;31860;45.186;5.790;2022-11-20T05:33:44;1.08;;;0.98;;
46128;SDS011;31860;45.186;5.790;2022-11-20T05:36:11;1.05;;;0.63;;
46128;SDS011;31860;45.186;5.790;2022-11-20T05:38:37;0.95;;;0.68;;
46128;SDS011;31860;45.186;5.790;2022-11-20T05:41:09;1.10;;;0.85;;
46128;SDS011;31860;45.186;5.790;2022-11-20T05:43:36;1.48;;;0.90;;
46128;SDS011;31860;45.186;5.790;2022-11-20T05:46:04;1.05;;;0.65;;
46128;SDS011;31860;45.186;5.790;2022-11-20T05:48:31;0.68;;;0.68;;
46128;SDS011;31860;45.186;5.790;2022-11-20T05:50:58;1.80;;;0.73;;
46128;SDS011;31860;45.186;5.790;2022-11-20T05:53:26;4.57;;;0.65;;
46128;SDS011;31860;45.186;5.790;2022-11-20T05:56:01;1.25;;;0.75;;
46128;SDS011;31860;45.186;5.790;2022-11-20T05:58:29;0.50;;;0.50;;
46128;SDS011;31860;45.186;5.790;2022-11-20T06:01:02;0.63;;;0.60;;
46128;SDS011;31860;45.186;5.790;2022-11-20T06:03:29;0.63;;;0.50;;
46128;SDS011;31860;45.186;5.790;2022-11-20T06:05:54;0.60;;;0.60;;
46128;SDS011;31860;45.186;5.790;2022-11-20T06:08:20;1.23;;;0.93;;
46128;SDS011;31860;45.186;5.790;2022-11-20T06:10:45;0.52;;;0.52;;
46128;SDS011;31860;45.186;5.790;2022-11-20T06:13:10;0.45;;;0.43;;
46128;SDS011;31860;45.186;5.790;2022-11-20T06:15:36;2.08;;;0.60;;
46128;SDS011;31860;45.186;5.790;2022-11-20T06:18:01;0.35;;;0.35;;
46128;SDS011;31860;45.186;5.790;2022-11-20T06:20:27;0.45;;;0.32;;
46128;SDS011;31860;45.186;5.790;2022-11-20T06:22:52;0.65;;;0.65;;
46128;SDS011;31860;45.186;5.790;2022-11-20T06:25:17;0.70;;;0.70;;
46128;SDS011;31860;45.186;5.790;2022-11-20T06:27:43;0.20;;;0.20;;
46128;SDS011;31860;45.186;5.790;2022-11-20T06:30:08;0.30;;;0.30;;
46128;SDS011;31860;45.186;5.790;2022-11-20T06:32:34;0.75;;;0.70;;
46128;SDS011;31860;45.186;5.790;2022-11-20T06:34:59;0.95;;;0.70;;
46128;SDS011;31860;45.186;5.790;2022-11-20T06:37:25;0.75;;;0.60;;
46128;SDS011;31860;45.186;5.790;2022-11-20T06:39:50;0.60;;;0.52;;
46128;SDS011;31860;45.186;5.790;2022-11-20T06:42:15;1.13;;;0.70;;
46128;SDS011;31860;45.186;5.790;2022-11-20T06:44:41;1.95;;;0.80;;
46128;SDS011;31860;45.186;5.790;2022-11-20T06:47:06;0.40;;;0.40;;
46128;SDS011;31860;45.186;5.790;2022-11-20T06:49:32;0.52;;;0.52;;
46128;SDS011;31860;45.186;5.790;2022-11-20T06:51:59;0.50;;;0.50;;
46128;SDS011;31860;45.186;5.790;2022-11-20T06:54:24;0.40;;;0.40;;
46128;SDS011;31860;45.186;5.790;2022-11-20T06:56:50;1.30;;;0.50;;
46128;SDS011;31860;45.186;5.790;2022-11-20T06:59:15;0.45;;;0.45;;
46128;SDS011;31860;45.186;5.790;2022-11-20T07:01:41;0.60;;;0.60;;
46128;SDS011;31860;45.186;5.790;2022-11-20T07:04:06;0.60;;;0.55;;
46128;SDS011;31860;45.186;5.790;2022-11-20T07:06:31;0.60;;;0.60;;
46128;SDS011;31860;45.186;5.790;2022-11-20T07:08:57;0.55;;;0.55;;
46128;SDS011;31860;45.186;5.790;2022-11-20T07:11:22;0.30;;;0.30;;
46128;SDS011;31860;45.186;5.790;2022-11-20T07:13:48;0.80;;;0.63;;
46128;SDS011;31860;45.186;5.790;2022-11-20T07:16:14;0.45;;;0.45;;
46128;SDS011;31860;45.186;5.790;2022-11-20T07:18:39;0.75;;;0.65;;
46128;SDS011;31860;45.186;5.790;2022-11-20T07:21:08;1.38;;;0.65;;
46128;SDS011;31860;45.186;5.790;2022-11-20T07:23:35;0.40;;;0.40;;
46128;SDS011;31860;45.186;5.790;2022-11-20T07:26:04;0.30;;;0.30;;
46128;SDS011;31860;45.186;5.790;2022-11-20T07:28:34;1.20;;;0.52;;
46128;SDS011;31860;45.186;5.790;2022-11-20T07:31:01;0.63;;;0.63;;
46128;SDS011;31860;45.186;5.790;2022-11-20T07:33:26;0.28;;;0.28;;
46128;SDS011;31860;45.186;5.790;2022-11-20T07:35:52;0.70;;;0.35;;
46128;SDS011;31860;45.186;5.790;2022-11-20T07:38:17;0.85;;;0.60;;
46128;SDS011;31860;45.186;5.790;2022-11-20T07:40:43;0.68;;;0.50;;
46128;SDS011;31860;45.186;5.790;2022-11-20T07:43:08;0.32;;;0.32;;
46128;SDS011;31860;45.186;5.790;2022-11-20T07:45:34;0.98;;;0.60;;
46128;SDS011;31860;45.186;5.790;2022-11-20T07:48:00;0.88;;;0.85;;
46128;SDS011;31860;45.186;5.790;2022-11-20T07:50:25;0.45;;;0.45;;
46128;SDS011;31860;45.186;5.790;2022-11-20T07:52:51;0.40;;;0.40;;
46128;SDS011;31860;45.186;5.790;2022-11-20T07:55:17;1.60;;;0.40;;
46128;SDS011;31860;45.186;5.790;2022-11-20T07:57:42;0.45;;;0.45;;
46128;SDS011;31860;45.186;5.790;2022-11-20T08:00:09;0.63;;;0.40;;
46128;SDS011;31860;45.186;5.790;2022-11-20T08:02:37;0.60;;;0.60;;
46128;SDS011;31860;45.186;5.790;2022-11-20T08:05:04;0.60;;;0.60;;
46128;SDS011;31860;45.186;5.790;2022-11-20T08:07:34;0.50;;;0.50;;
46128;SDS011;31860;45.186;5.790;2022-11-20T08:10:00;0.55;;;0.55;;
46128;SDS011;31860;45.186;5.790;2022-11-20T08:12:26;0.90;;;0.77;;
46128;SDS011;31860;45.186;5.790;2022-11-20T08:15:10;0.50;;;0.50;;
46128;SDS011;31860;45.186;5.790;2022-11-20T08:17:35;0.82;;;0.60;;
46128;SDS011;31860;45.186;5.790;2022-11-20T08:20:00;0.40;;;0.40;;
46128;SDS011;31860;45.186;5.790;2022-11-20T08:22:26;0.98;;;0.70;;
46128;SDS011;31860;45.186;5.790;2022-11-20T08:24:51;0.68;;;0.60;;
46128;SDS011;31860;45.186;5.790;2022-11-20T08:27:16;1.65;;;1.10;;
46128;SDS011;31860;45.186;5.790;2022-11-20T08:29:42;10.95;;;1.00;;
46128;SDS011;31860;45.186;5.790;2022-11-20T08:32:07;0.40;;;0.40;;
46128;SDS011;31860;45.186;5.790;2022-11-20T08:34:32;1.67;;;0.90;;
46128;SDS011;31860;45.186;5.790;2022-11-20T08:36:58;1.10;;;0.63;;
46128;SDS011;31860;45.186;5.790;2022-11-20T08:39:23;2.08;;;0.98;;
46128;SDS011;31860;45.186;5.790;2022-11-20T08:41:49;2.97;;;1.10;;
46128;SDS011;31860;45.186;5.790;2022-11-20T08:44:14;1.38;;;1.13;;
46128;SDS011;31860;45.186;5.790;2022-11-20T08:46:40;1.35;;;1.13;;
46128;SDS011;31860;45.186;5.790;2022-11-20T08:49:08;1.55;;;1.10;;
46128;SDS011;31860;45.186;5.790;2022-11-20T08:51:36;0.57;;;0.57;;
46128;SDS011;31860;45.186;5.790;2022-11-20T08:54:02;1.02;;;0.88;;
46128;SDS011;31860;45.186;5.790;2022-11-20T08:56:28;0.85;;;0.57;;
46128;SDS011;31860;45.186;5.790;2022-11-20T08:58:53;2.20;;;1.27;;
46128;SDS011;31860;45.186;5.790;2022-11-20T09:01:19;0.52;;;0.52;;
46128;SDS011;31860;45.186;5.790;2022-11-20T09:03:46;0.30;;;0.30;;
46128;SDS011;31860;45.186;5.790;2022-11-20T09:06:12;1.40;;;0.80;;
46128;SDS011;31860;45.186;5.790;2022-11-20T09:08:38;0.30;;;0.30;;
46128;SDS011;31860;45.186;5.790;2022-11-20T09:11:04;0.60;;;0.60;;
46128;SDS011;31860;45.186;5.790;2022-11-20T09:13:31;0.40;;;0.40;;
46128;SDS011;31860;45.186;5.790;2022-11-20T09:15:58;0.40;;;0.40;;
46128;SDS011;31860;45.186;5.790;2022-11-20T09:18:25;0.95;;;0.50;;
46128;SDS011;31860;45.186;5.790;2022-11-20T09:20:51;0.40;;;0.40;;
46128;SDS011;31860;45.186;5.790;2022-11-20T09:23:16;0.47;;;0.47;;
46128;SDS011;31860;45.186;5.790;2022-11-20T09:25:43;0.57;;;0.57;;
46128;SDS011;31860;45.186;5.790;2022-11-20T09:28:08;0.85;;;0.50;;
46128;SDS011;31860;45.186;5.790;2022-11-20T09:30:34;0.40;;;0.40;;
46128;SDS011;31860;45.186;5.790;2022-11-20T09:33:00;1.02;;;0.57;;
46128;SDS011;31860;45.186;5.790;2022-11-20T09:35:26;0.47;;;0.47;;
46128;SDS011;31860;45.186;5.790;2022-11-20T09:37:52;0.50;;;0.50;;
46128;SDS011;31860;45.186;5.790;2022-11-20T09:40:19;0.40;;;0.40;;
46128;SDS011;31860;45.186;5.790;2022-11-20T09:43:03;0.30;;;0.30;;
46128;SDS011;31860;45.186;5.790;2022-11-20T09:56:47;0.68;;;0.50;;
46128;SDS011;31860;45.186;5.790;2022-11-20T09:59:26;0.38;;;0.38;;
46128;SDS011;31860;45.186;5.790;2022-11-20T10:02:01;0.40;;;0.40;;
46128;SDS011;31860;45.186;5.790;2022-11-20T10:04:31;0.38;;;0.38;;
46128;SDS011;31860;45.186;5.790;2022-11-20T10:07:07;0.30;;;0.30;;
46128;SDS011;31860;45.186;5.790;2022-11-20T10:09:55;1.25;;;0.60;;
46128;SDS011;31860;45.186;5.790;2022-11-20T10:20:54;0.28;;;0.28;;
46128;SDS011;31860;45.186;5.790;2022-11-20T10:23:31;0.20;;;0.20;;
46128;SDS011;31860;45.186;5.790;2022-11-20T10:26:02;0.30;;;0.30;;
46128;SDS011;31860;45.186;5.790;2022-11-20T10:29:19;0.50;;;0.50;;
46128;SDS011;31860;45.186;5.790;2022-11-20T10:31:59;0.30;;;0.30;;
46128;SDS011;31860;45.186;5.790;2022-11-20T10:34:35;0.63;;;0.38;;
46128;SDS011;31860;45.186;5.790;2022-11-20T10:37:12;0.50;;;0.38;;
46128;SDS011;31860;45.186;5.790;2022-11-20T10:42:52;0.20;;;0.20;;
46128;SDS011;31860;45.186;5.790;2022-11-20T10:47:49;1.65;;;0.95;;
46128;SDS011;31860;45.186;5.790;2022-11-20T10:50:16;0.22;;;0.22;;
46128;SDS011;31860;45.186;5.790;2022-11-20T10:55:28;0.70;;;0.50;;
46128;SDS011;31860;45.186;5.790;2022-11-20T10:58:09;0.32;;;0.32;;
46128;SDS011;31860;45.186;5.790;2022-11-20T11:00:38;0.30;;;0.30;;
46128;SDS011;31860;45.186;5.790;2022-11-20T11:03:24;0.20;;;0.20;;
46128;SDS011;31860;45.186;5.790;2022-11-20T11:06:08;0.55;;;0.50;;
46128;SDS011;31860;45.186;5.790;2022-11-20T11:08:39;0.32;;;0.32;;
46128;SDS011;31860;45.186;5.790;2022-11-20T11:14:04;2.00;;;0.35;;
46128;SDS011;31860;45.186;5.790;2022-11-20T11:16:34;0.73;;;0.68;;
46128;SDS011;31860;45.186;5.790;2022-11-20T11:19:07;0.30;;;0.30;;
46128;SDS011;31860;45.186;5.790;2022-11-20T11:21:37;0.30;;;0.30;;
46128;SDS011;31860;45.186;5.790;2022-11-20T11:24:14;0.93;;;0.45;;
46128;SDS011;31860;45.186;5.790;2022-11-20T11:26:51;0.28;;;0.28;;
46128;SDS011;31860;45.186;5.790;2022-11-20T11:29:19;0.20;;;0.20;;
46128;SDS011;31860;45.186;5.790;2022-11-20T11:31:45;0.28;;;0.28;;
46128;SDS011;31860;45.186;5.790;2022-11-20T11:34:11;0.93;;;0.50;;
46128;SDS011;31860;45.186;5.790;2022-11-20T11:36:37;0.55;;;0.55;;
46128;SDS011;31860;45.186;5.790;2022-11-20T11:39:03;0.35;;;0.35;;
46128;SDS011;31860;45.186;5.790;2022-11-20T11:41:32;0.57;;;0.57;;
46128;SDS011;31860;45.186;5.790;2022-11-20T11:44:15;0.47;;;0.47;;
46128;SDS011;31860;45.186;5.790;2022-11-20T11:46:59;0.43;;;0.43;;
46128;SDS011;31860;45.186;5.790;2022-11-20T11:49:25;0.63;;;0.55;;
46128;SDS011;31860;45.186;5.790;2022-11-20T11:54:45;0.35;;;0.35;;
46128;SDS011;31860;45.186;5.790;2022-11-20T11:57:16;0.22;;;0.22;;
46128;SDS011;31860;45.186;5.790;2022-11-20T12:07:47;1.25;;;0.60;;
46128;SDS011;31860;45.186;5.790;2022-11-20T12:15:50;0.75;;;0.45;;
46128;SDS011;31860;45.186;5.790;2022-11-20T12:18:16;0.47;;;0.30;;
46128;SDS011;31860;45.186;5.790;2022-11-20T12:20:46;0.30;;;0.30;;
46128;SDS011;31860;45.186;5.790;2022-11-20T12:23:22;0.38;;;0.38;;
46128;SDS011;31860;45.186;5.790;2022-11-20T12:26:10;0.40;;;0.40;;
46128;SDS011;31860;45.186;5.790;2022-11-20T12:28:47;0.40;;;0.40;;
46128;SDS011;31860;45.186;5.790;2022-11-20T12:31:31;0.30;;;0.30;;
46128;SDS011;31860;45.186;5.790;2022-11-20T12:41:58;0.50;;;0.45;;
46128;SDS011;31860;45.186;5.790;2022-11-20T12:47:51;0.40;;;0.40;;
46128;SDS011;31860;45.186;5.790;2022-11-20T12:52:50;0.80;;;0.65;;
46128;SDS011;31860;45.186;5.790;2022-11-20T13:02:13;1.23;;;0.52;;
46128;SDS011;31860;45.186;5.790;2022-11-20T13:07:11;0.20;;;0.20;;
46128;SDS011;31860;45.186;5.790;2022-11-20T13:09:40;1.23;;;0.77;;
46128;SDS011;31860;45.186;5.790;2022-11-20T13:17:45;0.38;;;0.38;;
46128;SDS011;31860;45.186;5.790;2022-11-20T13:20:24;0.40;;;0.40;;
46128;SDS011;31860;45.186;5.790;2022-11-20T13:25:29;0.20;;;0.20;;
46128;SDS011;31860;45.186;5.790;2022-11-20T13:27:56;0.33;;;0.30;;
46128;SDS011;31860;45.186;5.790;2022-11-20T13:30:24;0.32;;;0.30;;
46128;SDS011;31860;45.186;5.790;2022-11-20T13:32:51;0.40;;;0.40;;
46128;SDS011;31860;45.186;5.790;2022-11-20T13:35:30;0.30;;;0.30;;
46128;SDS011;31860;45.186;5.790;2022-11-20T13:38:03;0.20;;;0.20;;
46128;SDS011;31860;45.186;5.790;2022-11-20T13:40:37;0.55;;;0.47;;
46128;SDS011;31860;45.186;5.790;2022-11-20T13:43:07;2.60;;;0.52;;
46128;SDS011;31860;45.186;5.790;2022-11-20T13:45:39;0.22;;;0.20;;
46128;SDS011;31860;45.186;5.790;2022-11-20T13:48:16;2.42;;;0.47;;
46128;SDS011;31860;45.186;5.790;2022-11-20T13:50:52;0.40;;;0.40;;
46128;SDS011;31860;45.186;5.790;2022-11-20T14:01:21;0.55;;;0.30;;
46128;SDS011;31860;45.186;5.790;2022-11-20T14:03:49;0.90;;;0.47;;
46128;SDS011;31860;45.186;5.790;2022-11-20T14:06:39;0.40;;;0.40;;
46128;SDS011;31860;45.186;5.790;2022-11-20T14:09:11;0.73;;;0.40;;
46128;SDS011;31860;45.186;5.790;2022-11-20T14:11:45;0.38;;;0.38;;
46128;SDS011;31860;45.186;5.790;2022-11-20T14:14:19;0.68;;;0.50;;
46128;SDS011;31860;45.186;5.790;2022-11-20T14:21:44;0.30;;;0.30;;
46128;SDS011;31860;45.186;5.790;2022-11-20T14:24:18;0.30;;;0.30;;
46128;SDS011;31860;45.186;5.790;2022-11-20T14:26:45;0.88;;;0.85;;
46128;SDS011;31860;45.186;5.790;2022-11-20T14:29:17;0.45;;;0.45;;
46128;SDS011;31860;45.186;5.790;2022-11-20T14:31:45;0.50;;;0.50;;
46128;SDS011;31860;45.186;5.790;2022-11-20T14:34:20;0.47;;;0.47;;
46128;SDS011;31860;45.186;5.790;2022-11-20T14:36:48;0.30;;;0.30;;
46128;SDS011;31860;45.186;5.790;2022-11-20T14:39:21;0.30;;;0.30;;
46128;SDS011;31860;45.186;5.790;2022-11-20T14:41:53;0.30;;;0.30;;
46128;SDS011;31860;45.186;5.790;2022-11-20T14:44:24;2.30;;;0.50;;
46128;SDS011;31860;45.186;5.790;2022-11-20T14:46:52;1.05;;;0.40;;
46128;SDS011;31860;45.186;5.790;2022-11-20T14:49:18;0.30;;;0.30;;
46128;SDS011;31860;45.186;5.790;2022-11-20T14:51:44;0.40;;;0.40;;
46128;SDS011;31860;45.186;5.790;2022-11-20T14:54:11;0.30;;;0.30;;
46128;SDS011;31860;45.186;5.790;2022-11-20T14:56:41;0.38;;;0.38;;
46128;SDS011;31860;45.186;5.790;2022-11-20T14:59:22;0.50;;;0.50;;
46128;SDS011;31860;45.186;5.790;2022-11-20T15:01:54;0.43;;;0.30;;
46128;SDS011;31860;45.186;5.790;2022-11-20T15:04:24;0.40;;;0.40;;
46128;SDS011;31860;45.186;5.790;2022-11-20T15:06:51;0.82;;;0.50;;
46128;SDS011;31860;45.186;5.790;2022-11-20T15:09:19;0.40;;;0.40;;
46128;SDS011;31860;45.186;5.790;2022-11-20T15:11:55;0.40;;;0.40;;
46128;SDS011;31860;45.186;5.790;2022-11-20T15:14:23;0.45;;;0.45;;
46128;SDS011;31860;45.186;5.790;2022-11-20T15:16:50;1.10;;;0.60;;
46128;SDS011;31860;45.186;5.790;2022-11-20T15:19:18;0.20;;;0.20;;
46128;SDS011;31860;45.186;5.790;2022-11-20T15:21:45;0.45;;;0.40;;
46128;SDS011;31860;45.186;5.790;2022-11-20T15:24:11;0.75;;;0.40;;
46128;SDS011;31860;45.186;5.790;2022-11-20T15:26:36;0.30;;;0.30;;
46128;SDS011;31860;45.186;5.790;2022-11-20T15:29:05;0.65;;;0.30;;
46128;SDS011;31860;45.186;5.790;2022-11-20T15:31:34;1.08;;;0.70;;
46128;SDS011;31860;45.186;5.790;2022-11-20T15:34:00;0.65;;;0.52;;
46128;SDS011;31860;45.186;5.790;2022-11-20T15:36:25;0.40;;;0.40;;
46128;SDS011;31860;45.186;5.790;2022-11-20T15:38:50;0.70;;;0.38;;
46128;SDS011;31860;45.186;5.790;2022-11-20T15:41:16;0.60;;;0.60;;
46128;SDS011;31860;45.186;5.790;2022-11-20T15:43:41;0.30;;;0.30;;
46128;SDS011;31860;45.186;5.790;2022-11-20T15:46:11;0.43;;;0.30;;
46128;SDS011;31860;45.186;5.790;2022-11-20T15:48:43;0.20;;;0.20;;
46128;SDS011;31860;45.186;5.790;2022-11-20T15:53:35;0.30;;;0.30;;
46128;SDS011;31860;45.186;5.790;2022-11-20T15:56:01;0.50;;;0.40;;
46128;SDS011;31860;45.186;5.790;2022-11-20T15:58:28;0.30;;;0.30;;
46128;SDS011;31860;45.186;5.790;2022-11-20T16:00:53;0.20;;;0.20;;
46128;SDS011;31860;45.186;5.790;2022-11-20T16:03:19;0.40;;;0.40;;
46128;SDS011;31860;45.186;5.790;2022-11-20T16:05:44;0.32;;;0.32;;
46128;SDS011;31860;45.186;5.790;2022-11-20T16:08:10;0.38;;;0.38;;
46128;SDS011;31860;45.186;5.790;2022-11-20T16:10:36;0.70;;;0.70;;
46128;SDS011;31860;45.186;5.790;2022-11-20T16:13:02;0.47;;;0.47;;
46128;SDS011;31860;45.186;5.790;2022-11-20T16:15:50;0.52;;;0.52;;
46128;SDS011;31860;45.186;5.790;2022-11-20T16:18:18;1.85;;;0.52;;
46128;SDS011;31860;45.186;5.790;2022-11-20T16:20:46;0.30;;;0.30;;
46128;SDS011;31860;45.186;5.790;2022-11-20T16:23:13;0.20;;;0.20;;
46128;SDS011;31860;45.186;5.790;2022-11-20T16:25:40;0.47;;;0.20;;
46128;SDS011;31860;45.186;5.790;2022-11-20T16:28:05;0.50;;;0.40;;
46128;SDS011;31860;45.186;5.790;2022-11-20T16:30:31;0.95;;;0.60;;
46128;SDS011;31860;45.186;5.790;2022-11-20T16:32:57;0.32;;;0.32;;
46128;SDS011;31860;45.186;5.790;2022-11-20T16:35:25;0.30;;;0.30;;
46128;SDS011;31860;45.186;5.790;2022-11-20T16:37:52;0.40;;;0.40;;